createdAt,value
2018-05-04T00:02:08.013Z,7.07
2018-05-04T00:04:35.505Z,7.37
2018-05-04T00:07:03.021Z,8.00
2018-05-04T00:09:30.509Z,8.40
2018-05-04T00:11:57.993Z,7.57
2018-05-04T00:14:25.497Z,7.45
2018-05-04T00:16:53.029Z,9.20
2018-05-04T00:19:20.537Z,7.15
2018-05-04T00:21:48.022Z,8.10
2018-05-04T00:24:15.537Z,7.93
2018-05-04T00:26:43.049Z,8.25
2018-05-04T00:29:10.559Z,9.65
2018-05-04T00:31:38.099Z,8.73
2018-05-04T00:34:05.609Z,10.50
2018-05-04T00:36:33.102Z,9.02
2018-05-04T00:39:00.621Z,9.77
2018-05-04T00:41:30.911Z,8.70
2018-05-04T00:43:58.422Z,9.48
2018-05-04T00:46:25.913Z,9.85
2018-05-04T00:48:53.437Z,10.40
2018-05-04T00:51:20.925Z,10.45
2018-05-04T00:54:00.113Z,11.27
2018-05-04T00:56:27.643Z,10.82
2018-05-04T00:58:55.173Z,11.20
2018-05-04T01:01:23.456Z,10.98
2018-05-04T01:03:50.969Z,10.23
2018-05-04T01:06:18.494Z,11.43
2018-05-04T01:08:46.013Z,10.88
2018-05-04T01:11:13.516Z,11.20
2018-05-04T01:13:41.032Z,11.70
2018-05-04T01:16:08.590Z,11.95
2018-05-04T01:18:36.103Z,11.35
2018-05-04T01:21:03.621Z,11.57
2018-05-04T01:23:31.133Z,12.23
2018-05-04T01:25:58.628Z,12.07
2018-05-04T01:28:26.166Z,12.15
2018-05-04T01:30:53.656Z,11.20
2018-05-04T01:33:21.169Z,13.05
2018-05-04T01:35:48.662Z,11.35
2018-05-04T01:38:16.189Z,11.98
2018-05-04T01:40:43.677Z,11.10
2018-05-04T01:43:11.195Z,10.98
2018-05-04T01:45:38.685Z,11.95
2018-05-04T01:48:06.214Z,12.48
2018-05-04T01:50:33.714Z,11.57
2018-05-04T01:53:01.209Z,12.60
2018-05-04T01:55:28.725Z,11.52
2018-05-04T01:57:56.219Z,11.12
2018-05-04T02:00:23.743Z,11.80
2018-05-04T02:02:51.240Z,12.45
2018-05-04T02:05:19.522Z,12.70
2018-05-04T02:07:47.137Z,12.40
2018-05-04T02:10:14.666Z,12.07
2018-05-04T02:12:42.153Z,14.02
2018-05-04T02:15:09.661Z,12.63
2018-05-04T02:17:37.163Z,12.45
2018-05-04T02:20:04.668Z,12.20
2018-05-04T02:22:32.170Z,12.95
2018-05-04T02:24:59.703Z,12.63
2018-05-04T02:27:27.957Z,12.70
2018-05-04T02:29:55.473Z,12.82
2018-05-04T02:32:22.977Z,13.55
2018-05-04T02:34:50.493Z,13.65
2018-05-04T02:37:17.998Z,13.20
2018-05-04T02:39:45.566Z,13.30
2018-05-04T02:42:13.058Z,13.30
2018-05-04T02:44:40.570Z,12.68
2018-05-04T02:47:08.072Z,13.27
2018-05-04T02:49:35.582Z,14.00
2018-05-04T02:52:03.080Z,13.82
2018-05-04T02:54:30.619Z,13.88
2018-05-04T02:56:58.106Z,13.70
2018-05-04T02:59:25.633Z,13.75
2018-05-04T03:01:53.202Z,13.45
2018-05-04T03:04:20.733Z,14.50
2018-05-04T03:06:48.223Z,13.88
2018-05-04T03:09:16.550Z,13.82
2018-05-04T03:11:44.069Z,13.25
2018-05-04T03:14:11.577Z,13.77
2018-05-04T03:16:39.071Z,13.85
2018-05-04T03:19:06.584Z,14.68
2018-05-04T03:21:34.098Z,13.75
2018-05-04T03:24:01.596Z,13.50
2018-05-04T03:26:29.154Z,13.30
2018-05-04T03:28:56.649Z,14.43
2018-05-04T03:31:24.178Z,15.07
2018-05-04T03:33:51.668Z,14.63
2018-05-04T03:36:19.177Z,14.93
2018-05-04T03:38:47.517Z,14.52
2018-05-04T03:41:15.026Z,14.05
2018-05-04T03:43:42.533Z,14.23
2018-05-04T03:46:10.049Z,16.83
2018-05-04T03:48:37.548Z,13.68
2018-05-04T03:51:05.065Z,14.87
2018-05-04T03:53:32.617Z,15.23
2018-05-04T03:56:00.155Z,15.13
2018-05-04T03:58:39.489Z,16.08
2018-05-04T04:01:18.850Z,14.93
2018-05-04T04:04:06.992Z,14.80
2018-05-04T04:06:34.509Z,14.77
2018-05-04T04:09:02.005Z,15.27
2018-05-04T04:11:29.521Z,13.90
2018-05-04T04:13:57.009Z,14.60
2018-05-04T04:16:24.518Z,13.82
2018-05-04T04:18:52.009Z,15.43
2018-05-04T04:21:19.538Z,16.20
2018-05-04T04:23:47.033Z,14.05
2018-05-04T04:26:14.558Z,15.48
2018-05-04T04:28:42.055Z,13.75
2018-05-04T04:31:09.573Z,13.55
2018-05-04T04:33:37.059Z,14.57
2018-05-04T04:36:04.582Z,14.10
2018-05-04T04:38:32.094Z,13.80
2018-05-04T04:41:00.378Z,13.93
2018-05-04T04:43:28.637Z,13.75
2018-05-04T04:45:56.152Z,13.80
2018-05-04T04:48:23.641Z,14.87
2018-05-04T04:50:51.156Z,14.87
2018-05-04T04:53:18.648Z,13.40
2018-05-04T04:55:46.176Z,13.50
2018-05-04T04:58:13.683Z,13.30
2018-05-04T05:00:41.206Z,14.27
2018-05-04T05:03:09.499Z,14.18
2018-05-04T05:05:37.005Z,12.48
2018-05-04T05:08:04.494Z,13.55
2018-05-04T05:10:32.094Z,13.62
2018-05-04T05:13:00.374Z,12.65
2018-05-04T05:15:27.894Z,12.68
2018-05-04T05:17:55.404Z,12.98
2018-05-04T05:20:22.889Z,12.98
2018-05-04T05:22:50.417Z,13.30
2018-05-04T05:25:17.909Z,12.80
2018-05-04T05:27:45.433Z,12.95
2018-05-04T05:30:12.942Z,11.70
2018-05-04T05:32:40.461Z,12.65
2018-05-04T05:35:08.003Z,11.95
2018-05-04T05:37:35.523Z,13.32
2018-05-04T05:40:03.042Z,11.43
2018-05-04T05:42:30.632Z,11.85
2018-05-04T05:44:58.077Z,11.18
2018-05-04T05:47:25.591Z,11.80
2018-05-04T05:49:53.101Z,13.35
2018-05-04T05:52:20.622Z,12.10
2018-05-04T05:54:48.116Z,12.68
2018-05-04T05:57:16.423Z,10.93
2018-05-04T05:59:43.913Z,11.70
2018-05-04T06:02:11.421Z,11.00
2018-05-04T06:04:38.950Z,11.38
2018-05-04T06:07:06.472Z,10.75
2018-05-04T06:09:33.970Z,10.63
2018-05-04T06:12:01.501Z,10.10
2018-05-04T06:14:29.003Z,10.00
2018-05-04T06:16:56.521Z,9.68
2018-05-04T06:19:24.009Z,10.18
2018-05-04T06:21:51.535Z,10.93
2018-05-04T06:24:19.020Z,10.10
2018-05-04T06:26:46.547Z,10.18
2018-05-04T06:29:14.047Z,11.00
2018-05-04T06:31:41.565Z,11.38
2018-05-04T06:34:09.052Z,9.55
2018-05-04T06:36:36.623Z,9.57
2018-05-04T06:39:04.126Z,10.30
2018-05-04T06:41:31.629Z,8.98
2018-05-04T06:43:59.117Z,8.45
2018-05-04T06:46:26.675Z,9.00
2018-05-04T06:48:54.165Z,9.23
2018-05-04T06:51:21.653Z,10.07
2018-05-04T06:53:49.191Z,8.45
2018-05-04T06:56:16.681Z,8.25
2018-05-04T06:58:44.194Z,8.32
2018-05-04T07:01:11.689Z,8.77
2018-05-04T07:03:39.206Z,9.75
2018-05-04T07:06:06.704Z,8.45
2018-05-04T07:08:34.217Z,8.48
2018-05-04T07:11:01.713Z,7.85
2018-05-04T07:13:29.216Z,7.50
2018-05-04T07:15:56.713Z,8.20
2018-05-04T07:18:24.251Z,7.90
2018-05-04T07:20:51.737Z,7.87
2018-05-04T07:23:19.252Z,7.47
2018-05-04T07:25:46.744Z,7.75
2018-05-04T07:28:14.257Z,7.05
2018-05-04T07:30:41.757Z,7.40
2018-05-04T07:33:09.273Z,6.93
2018-05-04T07:35:36.770Z,7.10
2018-05-04T07:38:06.864Z,7.15
2018-05-04T07:40:35.112Z,7.35
2018-05-04T07:43:02.635Z,7.60
2018-05-04T07:45:30.133Z,7.68
2018-05-04T07:47:57.707Z,8.82
2018-05-04T07:50:25.197Z,8.27
2018-05-04T07:52:52.708Z,6.85
2018-05-04T07:55:20.274Z,7.32
2018-05-04T07:57:47.712Z,7.95
2018-05-04T08:00:15.200Z,8.00
2018-05-04T08:02:42.709Z,7.35
2018-05-04T08:05:10.213Z,9.02
2018-05-04T08:07:37.778Z,7.97
2018-05-04T08:10:05.334Z,6.93
2018-05-04T08:12:33.609Z,8.73
2018-05-04T08:15:01.092Z,7.05
2018-05-04T08:17:28.612Z,7.60
2018-05-04T08:19:56.097Z,7.30
2018-05-04T08:22:23.593Z,7.82
2018-05-04T08:24:51.921Z,7.80
2018-05-04T08:27:19.446Z,7.35
2018-05-04T08:29:47.718Z,8.95
2018-05-04T08:32:15.213Z,8.10
2018-05-04T08:34:42.727Z,9.38
2018-05-04T08:37:10.219Z,7.85
2018-05-04T08:39:37.754Z,7.60
2018-05-04T08:42:05.245Z,7.00
2018-05-04T08:44:32.758Z,8.02
2018-05-04T08:47:00.304Z,8.02
2018-05-04T08:49:27.818Z,7.25
2018-05-04T08:51:55.307Z,7.30
2018-05-04T08:54:22.872Z,7.93
2018-05-04T08:56:51.085Z,7.35
2018-05-04T08:59:18.592Z,7.60
2018-05-04T09:01:46.081Z,7.97
2018-05-04T09:04:13.589Z,8.07
2018-05-04T09:06:41.078Z,7.40
2018-05-04T09:09:08.586Z,7.53
2018-05-04T09:11:36.077Z,8.65
2018-05-04T09:14:03.611Z,8.25
2018-05-04T09:16:31.101Z,8.20
2018-05-04T09:18:58.627Z,8.85
2018-05-04T09:21:26.177Z,8.18
2018-05-04T09:23:53.694Z,8.30
2018-05-04T09:26:21.185Z,8.57
2018-05-04T09:28:48.689Z,8.65
2018-05-04T09:31:16.184Z,8.00
2018-05-04T09:33:43.695Z,8.48
2018-05-04T09:36:11.189Z,9.38
2018-05-04T09:38:38.692Z,9.00
2018-05-04T09:41:06.194Z,9.75
2018-05-04T09:43:33.797Z,7.82
2018-05-04T09:46:02.061Z,9.52
2018-05-04T09:48:29.660Z,8.63
2018-05-04T09:50:57.078Z,9.15
2018-05-04T09:53:24.599Z,8.68
2018-05-04T09:55:52.116Z,8.65
2018-05-04T09:58:19.590Z,9.80
2018-05-04T10:00:47.109Z,9.73
2018-05-04T10:03:14.609Z,9.95
2018-05-04T10:05:42.124Z,10.50
2018-05-04T10:08:09.642Z,9.80
2018-05-04T10:10:37.173Z,10.23
2018-05-04T10:13:04.734Z,9.88
2018-05-04T10:15:32.245Z,11.73
2018-05-04T10:17:59.729Z,9.38
2018-05-04T10:20:27.250Z,11.65
2018-05-04T10:22:54.750Z,10.48
2018-05-04T10:25:22.256Z,10.50
2018-05-04T10:27:49.748Z,12.30
2018-05-04T10:30:17.262Z,11.57
2018-05-04T10:32:44.757Z,12.45
2018-05-04T10:35:13.034Z,11.57
2018-05-04T10:37:40.553Z,11.55
2018-05-04T10:40:08.066Z,13.57
2018-05-04T10:42:35.557Z,13.27
2018-05-04T10:45:03.138Z,12.02
2018-05-04T10:47:30.569Z,11.00
2018-05-04T10:49:58.093Z,13.57
2018-05-04T10:52:25.597Z,12.05
2018-05-04T10:54:53.118Z,12.93
2018-05-04T10:57:20.609Z,11.52
2018-05-04T10:59:48.121Z,12.50
2018-05-04T11:02:16.381Z,13.10
2018-05-04T11:04:43.890Z,12.52
2018-05-04T11:07:11.386Z,11.23
2018-05-04T11:09:38.902Z,11.93
2018-05-04T11:12:06.402Z,12.20
2018-05-04T11:14:33.914Z,12.20
2018-05-04T11:17:01.401Z,12.95
2018-05-04T11:19:28.930Z,12.13
2018-05-04T11:21:56.429Z,13.60
2018-05-04T11:24:23.948Z,11.02
2018-05-04T11:26:51.442Z,12.80
2018-05-04T11:29:18.955Z,13.52
2018-05-04T11:31:46.445Z,12.85
2018-05-04T11:34:13.957Z,11.52
2018-05-04T11:36:41.446Z,12.73
2018-05-04T11:39:08.947Z,12.00
2018-05-04T11:41:36.465Z,13.15
2018-05-04T11:44:03.963Z,11.93
2018-05-04T11:46:31.478Z,12.45
2018-05-04T11:48:58.971Z,11.88
2018-05-04T11:51:26.496Z,12.23
2018-05-04T11:53:53.989Z,10.35
2018-05-04T11:56:21.500Z,11.75
2018-05-04T11:58:48.993Z,12.45
2018-05-04T12:01:16.514Z,11.23
2018-05-04T12:03:44.009Z,11.10
2018-05-04T12:06:11.529Z,11.32
2018-05-04T12:08:39.017Z,11.82
2018-05-04T12:11:06.533Z,11.35
2018-05-04T12:13:34.022Z,10.15
2018-05-04T12:16:01.538Z,11.57
2018-05-04T12:18:29.030Z,12.27
2018-05-04T12:20:56.575Z,11.75
2018-05-04T12:23:24.068Z,12.88
2018-05-04T12:25:51.597Z,10.25
2018-05-04T12:28:19.100Z,10.65
2018-05-04T12:30:46.609Z,11.50
2018-05-04T12:33:14.686Z,10.70
2018-05-04T12:35:42.204Z,11.90
2018-05-04T12:38:09.698Z,11.60
2018-05-04T12:40:37.212Z,11.73
2018-05-04T12:43:04.705Z,11.77
2018-05-04T12:45:32.226Z,11.07
2018-05-04T12:47:59.717Z,12.52
2018-05-04T12:50:27.244Z,11.00
2018-05-04T12:52:54.733Z,11.85
2018-05-04T12:55:22.241Z,11.25
2018-05-04T12:57:49.728Z,12.15
2018-05-04T13:00:17.240Z,11.07
2018-05-04T13:02:44.732Z,12.27
2018-05-04T13:05:12.246Z,10.85
2018-05-04T13:07:39.742Z,11.85
2018-05-04T13:10:07.242Z,11.05
2018-05-04T13:12:34.769Z,10.77
2018-05-04T13:15:02.266Z,9.60
2018-05-04T13:17:29.784Z,11.93
2018-05-04T13:19:57.282Z,10.02
2018-05-04T13:22:24.800Z,9.63
2018-05-04T13:24:52.299Z,9.48
2018-05-04T13:27:19.814Z,9.55
2018-05-04T13:29:47.316Z,11.00
2018-05-04T13:32:14.841Z,10.40
2018-05-04T13:34:42.330Z,9.50
2018-05-04T13:37:09.844Z,10.35
2018-05-04T13:39:38.098Z,9.20
2018-05-04T13:42:05.611Z,10.38
2018-05-04T13:44:33.139Z,9.25
2018-05-04T13:47:00.614Z,9.68
2018-05-04T13:49:28.105Z,10.32
2018-05-04T13:51:55.631Z,10.95
2018-05-04T13:54:23.179Z,10.20
2018-05-04T13:56:50.692Z,11.18
2018-05-04T13:59:18.195Z,12.27
2018-05-04T14:01:45.716Z,11.12
2018-05-04T14:04:13.214Z,10.18
2018-05-04T14:06:40.725Z,9.95
2018-05-04T14:09:08.217Z,10.10
2018-05-04T14:11:35.750Z,12.65
2018-05-04T14:14:03.245Z,10.40
2018-05-04T14:16:30.757Z,10.95
2018-05-04T14:18:58.248Z,12.23
2018-05-04T14:21:25.761Z,10.70
2018-05-04T14:23:53.257Z,11.63
2018-05-04T14:26:20.779Z,12.57
2018-05-04T14:28:48.282Z,10.98
2018-05-04T14:31:15.802Z,11.20
2018-05-04T14:33:44.069Z,13.02
2018-05-04T14:36:11.576Z,11.43
2018-05-04T14:38:39.081Z,10.95
2018-05-04T14:41:07.373Z,13.05
2018-05-04T14:43:34.859Z,10.98
2018-05-04T14:46:02.365Z,11.82
2018-05-04T14:48:29.886Z,10.68
2018-05-04T14:50:57.372Z,11.27
2018-05-04T14:53:24.885Z,10.90
2018-05-04T14:55:53.149Z,10.80
2018-05-04T14:58:20.672Z,11.35
2018-05-04T15:00:48.181Z,11.07
2018-05-04T15:03:15.690Z,10.93
2018-05-04T15:05:43.186Z,11.10
2018-05-04T15:08:10.702Z,11.05
2018-05-04T15:10:38.197Z,10.50
2018-05-04T15:13:05.701Z,10.80
2018-05-04T15:15:33.197Z,11.02
2018-05-04T15:18:00.722Z,8.95
2018-05-04T15:20:28.216Z,9.80
2018-05-04T15:22:55.729Z,10.07
2018-05-04T15:25:23.214Z,9.85
2018-05-04T15:27:50.730Z,9.73
2018-05-04T15:30:18.217Z,11.40
2018-05-04T15:32:45.725Z,9.93
2018-05-04T15:35:13.981Z,10.43
2018-05-04T15:37:41.493Z,10.40
2018-05-04T15:40:08.986Z,10.95
2018-05-04T15:42:36.493Z,9.98
2018-05-04T15:45:03.981Z,9.73
2018-05-04T15:47:31.491Z,8.52
2018-05-04T15:50:13.857Z,8.93
2018-05-04T15:52:41.366Z,9.32
2018-05-04T15:55:08.867Z,10.32
2018-05-04T15:57:36.377Z,9.15
2018-05-04T16:00:03.959Z,9.82
2018-05-04T16:02:31.393Z,9.73
2018-05-04T16:04:58.885Z,8.13
2018-05-04T16:07:26.397Z,9.02
2018-05-04T16:09:53.894Z,8.65
2018-05-04T16:12:22.183Z,9.32
2018-05-04T16:14:49.699Z,9.05
2018-05-04T16:17:17.189Z,8.68
2018-05-04T16:19:44.702Z,7.93
2018-05-04T16:22:12.206Z,9.55
2018-05-04T16:24:39.726Z,8.77
2018-05-04T16:27:07.216Z,8.18
2018-05-04T16:29:34.726Z,8.10
2018-05-04T16:32:02.264Z,9.50
2018-05-04T16:34:29.729Z,7.53
2018-05-04T16:36:57.985Z,8.45
2018-05-04T16:39:25.493Z,8.25
2018-05-04T16:41:52.993Z,8.73
2018-05-04T16:44:20.508Z,7.40
2018-05-04T16:46:53.551Z,7.80
2018-05-04T16:49:26.510Z,9.02
2018-05-04T16:51:54.001Z,8.45
2018-05-04T16:54:21.512Z,6.35
2018-05-04T16:56:49.007Z,7.90
2018-05-04T16:59:16.530Z,7.95
2018-05-04T17:01:44.020Z,7.47
2018-05-04T17:04:11.538Z,7.55
2018-05-04T17:06:39.028Z,7.62
2018-05-04T17:09:06.598Z,7.30
2018-05-04T17:11:34.061Z,6.82
2018-05-04T17:14:01.572Z,5.72
2018-05-04T17:16:29.066Z,5.10
2018-05-04T17:18:56.572Z,5.00
2018-05-04T17:21:24.070Z,5.40
2018-05-04T17:23:51.583Z,4.43
2018-05-04T17:26:19.069Z,4.30
2018-05-04T17:28:46.616Z,4.10
2018-05-04T17:31:14.879Z,4.95
2018-05-04T17:33:42.390Z,6.90
2018-05-04T17:36:09.880Z,5.03
2018-05-04T17:38:37.380Z,4.68
2018-05-04T17:41:04.885Z,4.72
2018-05-04T17:43:32.397Z,4.43
2018-05-04T17:45:59.885Z,4.70
2018-05-04T17:48:27.403Z,4.50
2018-05-04T17:50:54.881Z,4.78
2018-05-04T17:53:22.369Z,4.65
2018-05-04T17:55:49.893Z,4.47
2018-05-04T17:58:17.377Z,4.10
2018-05-04T18:00:44.894Z,4.57
2018-05-04T18:03:12.452Z,4.10
2018-05-04T18:05:39.905Z,4.80
2018-05-04T18:08:07.390Z,4.30
2018-05-04T18:10:34.907Z,4.62
2018-05-04T18:13:02.409Z,4.40
2018-05-04T18:15:29.918Z,4.50
2018-05-04T18:17:57.402Z,4.82
2018-05-04T18:20:24.906Z,4.40
2018-05-04T18:22:52.403Z,4.32
2018-05-04T18:25:19.910Z,3.80
2018-05-04T18:27:47.393Z,4.37
2018-05-04T18:30:14.903Z,4.12
2018-05-04T18:32:42.401Z,4.32
2018-05-04T18:35:09.915Z,3.90
2018-05-04T18:37:37.400Z,3.97
2018-05-04T18:40:04.914Z,4.80
2018-05-04T18:42:32.401Z,4.62
2018-05-04T18:44:59.925Z,4.00
2018-05-04T18:47:27.425Z,5.85
2018-05-04T18:49:55.736Z,4.47
2018-05-04T18:52:23.234Z,3.55
2018-05-04T18:54:50.760Z,3.83
2018-05-04T18:57:18.460Z,4.15
2018-05-04T18:59:46.007Z,4.62
2018-05-04T19:02:28.375Z,3.95
2018-05-04T19:04:56.653Z,4.90
2018-05-04T19:07:24.906Z,4.05
2018-05-04T19:09:52.411Z,4.30
2018-05-04T19:12:19.897Z,4.85
2018-05-04T19:14:47.426Z,3.97
2018-05-04T19:17:14.914Z,4.37
2018-05-04T19:19:42.417Z,4.18
2018-05-04T19:22:09.901Z,4.60
2018-05-04T19:24:37.409Z,3.95
2018-05-04T19:27:04.888Z,3.87
2018-05-04T19:29:32.377Z,3.40
2018-05-04T19:31:59.894Z,4.57
2018-05-04T19:34:27.491Z,4.05
2018-05-04T19:36:54.918Z,4.25
2018-05-04T19:39:22.408Z,4.35
2018-05-04T19:41:49.913Z,4.93
2018-05-04T19:44:17.405Z,4.12
2018-05-04T19:46:44.917Z,4.12
2018-05-04T19:49:12.430Z,4.50
2018-05-04T19:51:39.938Z,4.28
2018-05-04T19:54:07.428Z,4.25
2018-05-04T19:56:34.943Z,5.07
2018-05-04T19:59:02.441Z,5.45
2018-05-04T20:01:30.038Z,4.10
2018-05-04T20:03:57.654Z,4.25
2018-05-04T20:06:25.161Z,4.40
2018-05-04T20:08:52.669Z,3.70
2018-05-04T20:11:20.193Z,4.30
2018-05-04T20:13:47.729Z,4.10
2018-05-04T20:16:16.299Z,3.75
2018-05-04T20:18:43.916Z,4.03
2018-05-04T20:21:11.437Z,4.55
2018-05-04T20:23:38.945Z,3.80
2018-05-04T20:26:06.486Z,3.60
2018-05-04T20:28:34.102Z,3.45
2018-05-04T20:31:01.626Z,4.30
2018-05-04T20:33:29.118Z,3.50
2018-05-04T20:35:56.623Z,4.12
2018-05-04T20:38:24.109Z,4.03
2018-05-04T20:40:51.629Z,4.53
2018-05-04T20:43:19.113Z,4.20
2018-05-04T20:45:46.621Z,3.80
2018-05-04T20:48:14.122Z,3.87
2018-05-04T20:50:41.630Z,4.12
2018-05-04T20:53:09.128Z,4.15
2018-05-04T20:55:36.645Z,40.05
2018-05-04T20:58:04.129Z,4.75
2018-05-04T21:00:31.613Z,4.20
2018-05-04T21:02:59.125Z,3.35
2018-05-04T21:05:26.604Z,4.00
2018-05-04T21:07:54.134Z,3.70
2018-05-04T21:10:21.633Z,3.50
2018-05-04T21:12:49.133Z,3.30
2018-05-04T21:15:16.630Z,4.35
2018-05-04T21:17:44.137Z,3.85
2018-05-04T21:20:11.630Z,3.55
2018-05-04T21:22:39.145Z,3.17
2018-05-04T21:25:06.650Z,3.40
2018-05-04T21:27:34.162Z,3.25
2018-05-04T21:30:01.641Z,3.53
2018-05-04T21:32:29.152Z,4.07
2018-05-04T21:34:56.634Z,4.12
2018-05-04T21:37:24.143Z,3.67
2018-05-04T21:39:51.634Z,4.03
2018-05-04T21:42:26.740Z,3.67
2018-05-04T21:44:54.258Z,3.50
2018-05-04T21:47:21.746Z,3.72
2018-05-04T21:49:49.229Z,3.12
2018-05-04T21:52:16.746Z,3.95
2018-05-04T21:54:44.228Z,3.80
2018-05-04T21:57:11.737Z,3.37
2018-05-04T21:59:39.229Z,3.28
2018-05-04T22:02:06.745Z,3.60
2018-05-04T22:04:34.235Z,3.80
2018-05-04T22:07:01.751Z,3.70
2018-05-04T22:09:29.232Z,4.50
2018-05-04T22:11:56.739Z,3.35
2018-05-04T22:14:24.262Z,4.00
2018-05-04T22:16:51.794Z,3.70
2018-05-04T22:19:19.281Z,4.07
2018-05-04T22:21:46.777Z,3.65
2018-05-04T22:24:14.327Z,4.20
2018-05-04T22:26:41.818Z,3.90
2018-05-04T22:29:09.302Z,3.90
2018-05-04T22:31:36.814Z,3.95
2018-05-04T22:34:04.290Z,3.55
2018-05-04T22:36:31.774Z,3.65
2018-05-04T22:38:59.289Z,3.95
2018-05-04T22:41:26.775Z,3.80
2018-05-04T22:43:54.285Z,3.70
2018-05-04T22:46:22.542Z,4.30
2018-05-04T22:48:50.047Z,8.27
2018-05-04T22:51:17.529Z,4.60
2018-05-04T22:53:45.026Z,4.35
2018-05-04T22:56:12.545Z,4.05
2018-05-04T22:58:40.042Z,4.20
2018-05-04T23:01:07.528Z,3.80
2018-05-04T23:03:35.806Z,3.78
2018-05-04T23:06:04.078Z,4.30
2018-05-04T23:08:32.358Z,5.00
2018-05-04T23:11:00.617Z,4.55
2018-05-04T23:13:28.120Z,4.93
2018-05-04T23:15:55.609Z,3.90
2018-05-04T23:18:23.113Z,4.25
2018-05-04T23:20:51.864Z,4.62
2018-05-04T23:23:19.317Z,3.75
2018-05-04T23:25:46.801Z,5.10
2018-05-04T23:28:15.090Z,4.20
2018-05-04T23:30:43.375Z,4.72
2018-05-04T23:33:10.873Z,4.25
2018-05-04T23:35:38.354Z,4.10
2018-05-04T23:38:05.857Z,4.35
2018-05-04T23:40:34.544Z,4.68
2018-05-04T23:43:03.326Z,3.60
2018-05-04T23:45:31.571Z,4.70
2018-05-04T23:47:59.069Z,3.83
2018-05-04T23:50:27.322Z,4.45
2018-05-04T23:52:54.841Z,4.25
2018-05-04T23:55:22.325Z,4.72
2018-05-04T23:57:49.825Z,4.35
